createdAt,value
2022-10-07T00:01:56.745Z,16.50
2022-10-07T00:04:23.165Z,18.42
2022-10-07T00:06:49.797Z,17.95
2022-10-07T00:09:16.401Z,17.65
2022-10-07T00:11:43.188Z,16.95
2022-10-07T00:14:10.269Z,15.23
2022-10-07T00:16:39.114Z,19.02
2022-10-07T00:19:07.800Z,15.80
2022-10-07T00:21:37.014Z,15.77
2022-10-07T00:24:04.599Z,16.98
2022-10-07T00:26:32.895Z,17.02
2022-10-07T00:29:00.557Z,16.58
2022-10-07T00:31:33.033Z,15.93
2022-10-07T00:33:59.707Z,21.95
2022-10-07T00:36:28.910Z,16.60
2022-10-07T00:39:04.599Z,17.15
2022-10-07T00:41:34.633Z,19.00
2022-10-07T00:44:41.419Z,16.98
2022-10-07T00:47:25.460Z,16.08
2022-10-07T00:50:02.534Z,19.20
2022-10-07T00:52:33.608Z,15.77
2022-10-07T00:55:04.239Z,15.68
2022-10-07T00:57:32.099Z,13.88
2022-10-07T00:59:59.481Z,16.33
2022-10-07T01:02:28.620Z,18.50
2022-10-07T01:04:59.057Z,17.35
2022-10-07T01:07:27.000Z,15.52
2022-10-07T01:09:55.067Z,16.13
2022-10-07T01:12:29.333Z,20.15
2022-10-07T01:15:11.046Z,20.02
2022-10-07T01:17:43.527Z,17.73
2022-10-07T01:20:46.694Z,24.83
2022-10-07T01:23:25.980Z,17.80
2022-10-07T01:26:11.116Z,21.48
2022-10-07T01:28:49.010Z,17.88
2022-10-07T01:31:21.406Z,15.88
2022-10-07T01:33:51.104Z,15.32
2022-10-07T01:36:21.910Z,20.08
2022-10-07T01:38:55.477Z,17.05
2022-10-07T01:41:23.217Z,18.00
2022-10-07T01:43:53.595Z,18.58
2022-10-07T01:46:24.459Z,17.27
2022-10-07T01:48:54.935Z,17.38
2022-10-07T01:51:24.167Z,21.52
2022-10-07T01:54:20.192Z,16.48
2022-10-07T01:57:27.968Z,15.80
2022-10-07T02:00:08.302Z,17.73
2022-10-07T02:02:43.491Z,15.70
2022-10-07T02:05:13.877Z,17.30
2022-10-07T02:07:59.249Z,13.57
2022-10-07T02:10:32.272Z,19.33
2022-10-07T02:13:35.672Z,16.77
2022-10-07T02:16:27.180Z,14.18
2022-10-07T02:18:54.133Z,12.20
2022-10-07T02:21:25.097Z,14.13
2022-10-07T02:23:56.311Z,16.67
2022-10-07T02:26:25.664Z,15.27
2022-10-07T02:28:54.880Z,16.13
2022-10-07T02:31:26.185Z,14.45
2022-10-07T02:33:57.083Z,14.10
2022-10-07T02:36:32.506Z,14.70
2022-10-07T02:39:01.161Z,17.73
2022-10-07T02:41:45.883Z,14.10
2022-10-07T02:44:26.072Z,13.52
2022-10-07T02:47:11.911Z,17.52
2022-10-07T02:49:42.040Z,16.23
2022-10-07T02:52:13.994Z,17.48
2022-10-07T02:54:47.531Z,15.93
2022-10-07T02:57:18.771Z,15.63
2022-10-07T02:59:48.315Z,13.13
2022-10-07T03:02:24.575Z,16.20
2022-10-07T03:04:51.532Z,19.73
2022-10-07T03:07:18.045Z,15.10
2022-10-07T03:09:44.652Z,18.13
2022-10-07T03:12:11.117Z,12.43
2022-10-07T03:14:41.097Z,14.93
2022-10-07T03:17:07.522Z,14.00
2022-10-07T03:19:33.994Z,17.63
2022-10-07T03:22:00.413Z,18.25
2022-10-07T03:24:26.865Z,14.18
2022-10-07T03:26:53.394Z,22.55
2022-10-07T03:29:19.921Z,16.90
2022-10-07T03:31:46.369Z,16.83
2022-10-07T03:34:12.854Z,17.60
2022-10-07T03:36:39.332Z,15.82
2022-10-07T03:39:05.758Z,18.08
2022-10-07T03:41:32.864Z,17.27
2022-10-07T03:43:59.398Z,18.60
2022-10-07T03:46:25.976Z,16.33
2022-10-07T03:48:52.497Z,17.88
2022-10-07T03:51:19.026Z,16.50
2022-10-07T03:53:45.546Z,19.38
2022-10-07T03:56:12.077Z,18.23
2022-10-07T03:58:39.283Z,14.68
2022-10-07T04:01:06.973Z,19.80
2022-10-07T04:03:33.536Z,15.95
2022-10-07T04:06:00.633Z,19.52
2022-10-07T04:08:33.028Z,14.68
2022-10-07T04:11:00.843Z,15.82
2022-10-07T04:13:27.682Z,16.52
2022-10-07T04:15:54.921Z,19.85
2022-10-07T04:18:21.968Z,15.38
2022-10-07T04:20:48.436Z,20.02
2022-10-07T04:23:15.851Z,18.05
2022-10-07T04:25:47.075Z,13.90
2022-10-07T04:28:26.125Z,16.40
2022-10-07T04:30:53.940Z,19.38
2022-10-07T04:33:23.874Z,15.00
2022-10-07T04:35:51.198Z,16.67
2022-10-07T04:38:18.503Z,16.92
2022-10-07T04:40:48.051Z,19.45
2022-10-07T04:43:20.157Z,18.63
2022-10-07T04:45:55.121Z,21.88
2022-10-07T04:48:23.427Z,23.33
2022-10-07T04:50:51.831Z,19.80
2022-10-07T04:53:19.769Z,15.27
2022-10-07T04:55:48.651Z,20.95
2022-10-07T04:58:15.787Z,17.55
2022-10-07T05:00:44.324Z,19.35
2022-10-07T05:03:12.611Z,23.80
2022-10-07T05:05:46.991Z,26.08
2022-10-07T05:08:15.320Z,23.47
2022-10-07T05:10:42.843Z,27.83
2022-10-07T05:13:12.399Z,26.25
2022-10-07T05:15:48.057Z,21.38
2022-10-07T05:18:15.509Z,16.15
2022-10-07T05:20:43.398Z,18.38
2022-10-07T05:23:09.952Z,21.85
2022-10-07T05:25:36.480Z,22.27
2022-10-07T05:28:03.001Z,21.23
2022-10-07T05:30:29.531Z,16.65
2022-10-07T05:32:56.194Z,19.08
2022-10-07T05:35:23.006Z,19.25
2022-10-07T05:37:53.825Z,24.63
2022-10-07T05:40:21.398Z,18.17
2022-10-07T05:42:47.843Z,18.15
2022-10-07T05:45:14.378Z,21.00
2022-10-07T05:47:40.956Z,23.38
2022-10-07T05:50:08.394Z,22.50
2022-10-07T05:52:35.624Z,19.92
2022-10-07T05:55:02.368Z,20.60
2022-10-07T05:57:28.898Z,18.10
2022-10-07T05:59:56.578Z,22.23
2022-10-07T06:02:23.138Z,17.60
2022-10-07T06:04:49.865Z,20.88
2022-10-07T06:07:20.943Z,19.48
2022-10-07T06:10:07.861Z,23.17
2022-10-07T06:12:52.717Z,21.48
2022-10-07T06:15:19.188Z,22.27
2022-10-07T06:17:46.076Z,18.10
2022-10-07T06:20:14.242Z,26.33
2022-10-07T06:22:41.329Z,21.17
2022-10-07T06:25:08.410Z,23.23
2022-10-07T06:27:36.256Z,20.95
2022-10-07T06:30:03.158Z,26.35
2022-10-07T06:32:32.697Z,15.15
2022-10-07T06:34:59.155Z,17.60
2022-10-07T06:37:25.701Z,18.60
2022-10-07T06:39:54.319Z,19.98
2022-10-07T06:42:23.974Z,18.13
2022-10-07T06:44:53.709Z,22.25
2022-10-07T06:47:21.465Z,18.85
2022-10-07T06:49:48.046Z,18.85
2022-10-07T06:52:14.601Z,16.90
2022-10-07T06:54:41.096Z,15.95
2022-10-07T06:57:26.412Z,22.83
2022-10-07T06:59:55.338Z,20.50
2022-10-07T07:02:22.201Z,19.77
2022-10-07T07:04:48.734Z,19.13
2022-10-07T07:07:15.267Z,19.90
2022-10-07T07:09:41.714Z,18.10
2022-10-07T07:12:08.201Z,22.80
2022-10-07T07:14:36.077Z,15.77
2022-10-07T07:17:02.680Z,23.67
2022-10-07T07:19:29.560Z,22.95
2022-10-07T07:21:56.200Z,23.77
2022-10-07T07:24:22.665Z,25.85
2022-10-07T07:26:49.168Z,22.52
2022-10-07T07:29:16.578Z,24.65
2022-10-07T07:31:44.035Z,16.77
2022-10-07T07:34:12.944Z,17.38
2022-10-07T07:36:43.783Z,22.20
2022-10-07T07:39:12.827Z,19.33
2022-10-07T07:41:41.964Z,20.95
2022-10-07T07:44:11.656Z,15.77
2022-10-07T07:46:41.824Z,16.00
2022-10-07T07:49:10.484Z,19.05
2022-10-07T07:51:37.562Z,17.85
2022-10-07T07:54:04.462Z,18.60
2022-10-07T07:56:33.781Z,16.73
2022-10-07T07:59:01.536Z,17.27
2022-10-07T08:01:32.040Z,22.52
2022-10-07T08:04:00.915Z,11.25
2022-10-07T08:06:28.581Z,20.02
2022-10-07T08:08:57.305Z,21.63
2022-10-07T08:11:24.364Z,16.48
2022-10-07T08:13:51.597Z,13.57
2022-10-07T08:16:20.302Z,17.88
2022-10-07T08:18:49.595Z,21.35
2022-10-07T08:21:19.173Z,21.70
2022-10-07T08:23:48.157Z,14.85
2022-10-07T08:26:14.993Z,21.70
2022-10-07T08:28:42.072Z,9.00
2022-10-07T08:31:12.074Z,12.10
2022-10-07T08:33:40.737Z,7.93
2022-10-07T08:36:10.797Z,12.02
2022-10-07T08:38:39.175Z,16.27
2022-10-07T08:41:08.719Z,1.92
2022-10-07T08:43:41.030Z,12.90
2022-10-07T08:46:14.123Z,14.07
2022-10-07T08:48:42.783Z,11.10
2022-10-07T08:51:40.262Z,2.38
2022-10-07T08:54:13.461Z,5.35
2022-10-07T08:56:41.342Z,5.55
2022-10-07T08:59:22.554Z,0.93
2022-10-07T09:02:13.923Z,6.07
2022-10-07T09:04:58.874Z,10.15
2022-10-07T09:07:34.230Z,6.47
2022-10-07T09:12:44.711Z,9.65
2022-10-07T09:15:38.124Z,10.83
2022-10-07T09:18:16.277Z,5.88
2022-10-07T09:20:47.113Z,2.53
2022-10-07T09:23:15.452Z,21.08
2022-10-07T09:25:43.357Z,14.45
2022-10-07T09:28:15.463Z,8.45
2022-10-07T09:30:42.660Z,4.60
2022-10-07T09:33:15.461Z,16.10
2022-10-07T09:35:45.619Z,8.55
2022-10-07T09:38:12.087Z,5.35
2022-10-07T09:40:59.976Z,7.05
2022-10-07T09:43:27.704Z,9.68
2022-10-07T09:45:56.226Z,9.25
2022-10-07T09:48:27.295Z,14.55
2022-10-07T09:51:13.970Z,4.32
2022-10-07T09:53:58.520Z,11.43
2022-10-07T09:56:43.380Z,5.65
2022-10-07T09:59:32.182Z,7.23
2022-10-07T10:02:17.748Z,14.95
2022-10-07T10:04:48.995Z,8.93
2022-10-07T10:07:30.655Z,13.35
2022-10-07T10:10:03.422Z,11.10
2022-10-07T10:12:36.169Z,11.48
2022-10-07T10:15:23.516Z,4.22
2022-10-07T10:17:51.145Z,14.65
2022-10-07T10:20:23.490Z,11.85
2022-10-07T10:22:50.986Z,6.10
2022-10-07T10:25:52.690Z,3.72
2022-10-07T10:28:34.781Z,10.43
2022-10-07T10:31:14.846Z,8.85
2022-10-07T10:34:00.808Z,3.30
2022-10-07T10:36:31.170Z,4.82
2022-10-07T10:39:03.787Z,5.75
2022-10-07T10:41:50.728Z,8.27
2022-10-07T10:44:32.262Z,14.80
2022-10-07T10:47:02.210Z,6.53
2022-10-07T10:49:42.783Z,13.65
2022-10-07T10:52:20.935Z,20.45
2022-10-07T10:55:05.663Z,13.25
2022-10-07T10:57:47.456Z,0.82
2022-10-07T11:00:18.987Z,16.38
2022-10-07T11:03:25.608Z,6.50
2022-10-07T11:05:54.904Z,10.10
2022-10-07T11:08:27.585Z,2.10
2022-10-07T11:11:17.137Z,8.30
2022-10-07T11:13:50.928Z,11.63
2022-10-07T11:16:30.939Z,6.45
2022-10-07T11:19:19.410Z,3.20
2022-10-07T11:21:54.641Z,11.43
2022-10-07T11:30:06.558Z,7.72
2022-10-07T11:32:45.373Z,13.60
2022-10-07T11:35:32.741Z,4.47
2022-10-07T11:38:14.451Z,2.65
2022-10-07T11:40:46.284Z,5.38
2022-10-07T11:43:22.601Z,2.72
2022-10-07T11:45:54.220Z,4.63
2022-10-07T11:48:41.173Z,4.25
2022-10-07T11:51:17.644Z,6.80
2022-10-07T11:53:44.824Z,11.45
2022-10-07T11:56:21.823Z,10.98
2022-10-07T11:58:59.245Z,3.28
2022-10-07T12:01:25.703Z,5.90
2022-10-07T12:03:54.595Z,6.35
2022-10-07T12:06:21.098Z,5.07
2022-10-07T12:08:47.583Z,9.88
2022-10-07T12:11:22.624Z,7.30
2022-10-07T12:13:51.348Z,12.20
2022-10-07T12:16:24.063Z,8.38
2022-10-07T12:19:10.743Z,9.18
2022-10-07T12:21:57.123Z,14.60
2022-10-07T12:24:23.651Z,6.82
2022-10-07T12:26:50.443Z,11.95
2022-10-07T12:29:23.818Z,9.73
2022-10-07T12:31:50.536Z,13.13
2022-10-07T12:34:39.570Z,5.88
2022-10-07T12:37:40.188Z,11.77
2022-10-07T12:40:29.688Z,3.55
2022-10-07T12:43:10.765Z,6.60
2022-10-07T12:45:41.267Z,9.18
2022-10-07T12:48:15.705Z,3.00
2022-10-07T12:50:44.556Z,15.15
2022-10-07T12:53:12.413Z,2.17
2022-10-07T12:55:48.196Z,5.18
2022-10-07T12:58:39.309Z,10.45
2022-10-07T13:01:43.226Z,13.57
2022-10-07T13:04:47.177Z,16.67
2022-10-07T13:07:32.189Z,3.67
2022-10-07T13:10:10.909Z,7.15
2022-10-07T13:12:56.067Z,16.42
2022-10-07T13:15:53.852Z,7.55
2022-10-07T13:18:42.171Z,11.38
2022-10-07T13:21:27.197Z,10.63
2022-10-07T13:23:55.592Z,4.00
2022-10-07T13:26:23.802Z,16.88
2022-10-07T13:28:50.306Z,8.18
2022-10-07T13:31:30.720Z,5.93
2022-10-07T13:33:59.518Z,8.05
2022-10-07T13:36:28.276Z,7.85
2022-10-07T13:39:12.079Z,1.70
2022-10-07T13:41:42.568Z,13.00
2022-10-07T13:44:14.174Z,6.53
2022-10-07T13:46:55.271Z,10.65
2022-10-07T13:49:29.281Z,9.43
2022-10-07T13:51:58.595Z,14.38
2022-10-07T13:54:29.171Z,4.28
2022-10-07T13:56:55.889Z,10.73
2022-10-07T13:59:23.137Z,9.60
2022-10-07T14:01:55.404Z,4.72
2022-10-07T14:04:34.280Z,6.10
2022-10-07T14:07:12.882Z,11.43
2022-10-07T14:10:00.912Z,10.52
2022-10-07T14:12:47.309Z,14.32
2022-10-07T14:15:21.645Z,2.75
2022-10-07T14:17:54.695Z,11.00
2022-10-07T14:20:30.299Z,15.68
2022-10-07T14:23:02.455Z,15.23
2022-10-07T14:25:31.543Z,8.27
2022-10-07T14:27:58.714Z,11.85
2022-10-07T14:30:57.339Z,6.32
2022-10-07T14:33:43.991Z,12.07
2022-10-07T14:36:22.001Z,9.98
2022-10-07T14:38:50.628Z,4.85
2022-10-07T14:41:20.060Z,6.05
2022-10-07T14:43:49.142Z,15.75
2022-10-07T14:46:18.454Z,11.88
2022-10-07T14:48:46.274Z,10.52
2022-10-07T14:51:15.168Z,6.68
2022-10-07T14:53:42.607Z,9.05
2022-10-07T14:56:15.204Z,5.28
2022-10-07T14:58:42.444Z,8.38
2022-10-07T15:01:08.944Z,4.72
2022-10-07T15:03:35.438Z,15.63
2022-10-07T15:06:02.071Z,10.15
2022-10-07T15:08:29.125Z,3.38
2022-10-07T15:10:55.638Z,3.60
2022-10-07T15:13:22.232Z,16.48
2022-10-07T15:15:49.230Z,8.52
2022-10-07T15:18:15.694Z,1.52
2022-10-07T15:20:42.173Z,10.27
2022-10-07T15:23:09.388Z,10.95
2022-10-07T15:25:39.761Z,5.72
2022-10-07T15:28:06.304Z,19.55
2022-10-07T15:30:38.339Z,9.82
2022-10-07T15:33:05.912Z,15.18
2022-10-07T15:35:33.399Z,11.80
2022-10-07T15:37:59.821Z,16.67
2022-10-07T15:40:26.329Z,5.15
2022-10-07T15:42:52.774Z,12.45
2022-10-07T15:45:19.471Z,6.88
2022-10-07T15:47:46.014Z,11.18
2022-10-07T15:50:12.464Z,6.18
2022-10-07T15:52:38.989Z,12.57
2022-10-07T15:55:07.878Z,12.93
2022-10-07T15:57:35.162Z,10.77
2022-10-07T16:00:02.445Z,7.38
2022-10-07T16:02:29.066Z,10.30
2022-10-07T16:04:55.773Z,12.85
2022-10-07T16:07:23.245Z,10.10
2022-10-07T16:09:49.658Z,10.32
2022-10-07T16:12:16.190Z,15.23
2022-10-07T16:14:42.655Z,12.98
2022-10-07T16:17:09.077Z,6.93
2022-10-07T16:19:35.524Z,7.82
2022-10-07T16:22:02.006Z,11.88
2022-10-07T16:24:34.004Z,16.85
2022-10-07T16:27:01.595Z,13.32
2022-10-07T16:29:46.604Z,10.38
2022-10-07T16:32:13.185Z,20.10
2022-10-07T16:34:43.298Z,18.33
2022-10-07T16:37:10.629Z,17.50
2022-10-07T16:39:37.111Z,14.88
2022-10-07T16:42:04.028Z,14.02
2022-10-07T16:44:30.442Z,14.70
2022-10-07T16:46:57.976Z,11.57
2022-10-07T16:49:26.167Z,12.23
2022-10-07T16:51:53.076Z,15.45
2022-10-07T16:54:20.366Z,14.30
2022-10-07T16:56:50.574Z,19.13
2022-10-07T16:59:22.464Z,16.80
2022-10-07T17:01:55.678Z,13.68
2022-10-07T17:04:23.818Z,16.00
2022-10-07T17:06:50.424Z,18.77
2022-10-07T17:09:18.252Z,15.57
2022-10-07T17:11:45.388Z,13.80
2022-10-07T17:14:11.915Z,13.20
2022-10-07T17:16:44.312Z,20.80
2022-10-07T17:19:13.620Z,19.65
2022-10-07T17:21:41.934Z,20.67
2022-10-07T17:24:09.669Z,19.00
2022-10-07T17:26:37.592Z,19.38
2022-10-07T17:29:07.736Z,15.70
2022-10-07T17:31:36.689Z,19.05
2022-10-07T17:34:05.770Z,17.38
2022-10-07T17:36:32.792Z,18.20
2022-10-07T17:38:59.650Z,14.77
2022-10-07T17:41:31.140Z,18.45
2022-10-07T17:43:59.788Z,10.85
2022-10-07T17:46:29.541Z,22.63
2022-10-07T17:48:57.973Z,25.60
2022-10-07T17:51:28.145Z,16.85
2022-10-07T17:54:03.779Z,20.80
2022-10-07T17:56:31.981Z,18.55
2022-10-07T17:58:59.016Z,16.23
2022-10-07T18:01:28.049Z,16.77
2022-10-07T18:03:59.253Z,17.67
2022-10-07T18:06:31.121Z,18.17
2022-10-07T18:09:02.216Z,19.05
2022-10-07T18:11:47.981Z,22.73
2022-10-07T18:17:00.357Z,19.50
2022-10-07T18:19:27.227Z,15.88
2022-10-07T18:21:56.189Z,20.48
2022-10-07T18:24:23.890Z,19.58
2022-10-07T18:26:50.463Z,20.15
2022-10-07T18:29:17.367Z,20.08
2022-10-07T18:31:43.890Z,19.45
2022-10-07T18:34:10.861Z,15.55
2022-10-07T18:36:37.540Z,22.70
2022-10-07T18:39:08.103Z,20.40
2022-10-07T18:41:34.587Z,20.40
2022-10-07T18:44:00.990Z,17.25
2022-10-07T18:46:27.460Z,17.98
2022-10-07T18:48:54.192Z,19.80
2022-10-07T18:51:20.715Z,15.77
2022-10-07T18:53:47.334Z,22.67
2022-10-07T18:56:16.378Z,21.17
2022-10-07T18:58:45.147Z,19.42
2022-10-07T19:01:12.851Z,16.45
2022-10-07T19:03:39.979Z,21.30
2022-10-07T19:06:13.103Z,21.85
2022-10-07T19:08:39.705Z,16.70
2022-10-07T19:11:08.475Z,21.05
2022-10-07T19:13:56.082Z,18.45
2022-10-07T19:16:25.427Z,21.90
2022-10-07T19:18:54.496Z,22.35
2022-10-07T19:21:21.174Z,24.77
2022-10-07T19:23:49.182Z,21.98
2022-10-07T19:26:21.399Z,22.35
2022-10-07T19:28:49.830Z,19.83
2022-10-07T19:31:19.751Z,20.20
2022-10-07T19:33:49.898Z,24.42
2022-10-07T19:36:18.886Z,19.95
2022-10-07T19:38:46.808Z,19.10
2022-10-07T19:41:15.869Z,33.78
2022-10-07T19:43:43.850Z,32.10
2022-10-07T19:46:11.189Z,34.10
2022-10-07T19:48:38.533Z,30.27
2022-10-07T19:51:08.688Z,29.02
2022-10-07T19:53:35.890Z,37.58
2022-10-07T19:56:05.004Z,24.73
2022-10-07T19:58:31.840Z,34.78
2022-10-07T20:01:10.793Z,34.90
2022-10-07T20:03:37.306Z,32.25
2022-10-07T20:06:07.653Z,31.00
2022-10-07T20:08:36.810Z,36.25
2022-10-07T20:11:05.042Z,27.33
2022-10-07T20:13:33.052Z,24.42
2022-10-07T20:16:18.838Z,30.98
2022-10-07T20:18:47.869Z,27.13
2022-10-07T20:21:17.546Z,29.20
2022-10-07T20:23:46.634Z,32.35
2022-10-07T20:26:22.151Z,29.25
2022-10-07T20:28:51.247Z,27.55
2022-10-07T20:31:21.235Z,21.88
2022-10-07T20:33:49.957Z,26.55
2022-10-07T20:36:22.395Z,21.88
2022-10-07T20:39:13.566Z,19.83
2022-10-07T20:41:58.513Z,18.92
2022-10-07T20:44:24.952Z,24.63
2022-10-07T20:46:51.966Z,23.25
2022-10-07T20:49:25.152Z,20.67
2022-10-07T20:51:54.022Z,19.65
2022-10-07T20:54:22.692Z,24.52
2022-10-07T20:56:51.738Z,23.25
2022-10-07T20:59:18.305Z,26.05
2022-10-07T21:01:45.324Z,23.38
2022-10-07T21:04:13.941Z,22.77
2022-10-07T21:06:40.857Z,23.25
2022-10-07T21:09:08.260Z,23.05
2022-10-07T21:11:35.332Z,22.45
2022-10-07T21:14:01.804Z,24.15
2022-10-07T21:16:30.714Z,20.90
2022-10-07T21:18:57.352Z,24.98
2022-10-07T21:21:24.448Z,20.60
2022-10-07T21:23:51.594Z,33.58
2022-10-07T21:26:19.066Z,19.45
2022-10-07T21:28:48.178Z,22.33
2022-10-07T21:31:20.029Z,26.63
2022-10-07T21:33:49.815Z,25.70
2022-10-07T21:36:20.043Z,30.25
2022-10-07T21:38:52.045Z,24.52
2022-10-07T21:41:22.076Z,24.35
2022-10-07T21:43:54.064Z,24.02
2022-10-07T21:46:21.910Z,23.70
2022-10-07T21:48:48.554Z,24.15
2022-10-07T21:51:15.153Z,24.85
2022-10-07T21:53:41.893Z,20.67
2022-10-07T21:56:12.340Z,23.65
2022-10-07T21:58:39.228Z,22.30
2022-10-07T22:01:13.898Z,21.80
2022-10-07T22:03:40.848Z,29.27
2022-10-07T22:06:09.618Z,22.83
2022-10-07T22:08:37.749Z,20.27
2022-10-07T22:11:07.229Z,23.48
2022-10-07T22:13:36.521Z,25.83
2022-10-07T22:16:08.886Z,23.38
2022-10-07T22:18:36.262Z,25.95
2022-10-07T22:21:10.850Z,20.50
2022-10-07T22:23:37.471Z,22.85
2022-10-07T22:26:05.693Z,18.17
2022-10-07T22:28:35.478Z,24.08
2022-10-07T22:31:03.482Z,20.48
2022-10-07T22:33:30.040Z,25.73
2022-10-07T22:35:56.499Z,29.02
2022-10-07T22:38:25.353Z,20.48
2022-10-07T22:40:52.092Z,22.15
2022-10-07T22:43:18.547Z,27.98
2022-10-07T22:45:55.356Z,21.85
2022-10-07T22:48:21.802Z,23.38
2022-10-07T22:50:48.268Z,26.02
2022-10-07T22:53:14.705Z,20.70
2022-10-07T22:55:41.194Z,31.02
2022-10-07T22:58:07.680Z,25.73
2022-10-07T23:00:34.210Z,39.17
2022-10-07T23:03:00.913Z,28.83
2022-10-07T23:05:27.485Z,20.50
2022-10-07T23:07:53.988Z,24.13
2022-10-07T23:10:20.459Z,29.33
2022-10-07T23:12:47.160Z,19.15
2022-10-07T23:15:16.375Z,19.88
2022-10-07T23:17:42.793Z,23.23
2022-10-07T23:20:09.482Z,20.60
2022-10-07T23:22:35.978Z,20.95
2022-10-07T23:25:04.205Z,16.13
2022-10-07T23:27:30.670Z,18.77
2022-10-07T23:29:57.176Z,16.92
2022-10-07T23:32:23.807Z,23.55
2022-10-07T23:34:50.260Z,21.75
2022-10-07T23:37:16.724Z,22.35
2022-10-07T23:39:43.165Z,15.70
2022-10-07T23:42:09.660Z,20.23
2022-10-07T23:44:36.101Z,23.52
2022-10-07T23:47:02.580Z,23.30
2022-10-07T23:49:29.092Z,22.52
2022-10-07T23:51:55.556Z,27.98
2022-10-07T23:54:22.038Z,18.35
2022-10-07T23:56:49.258Z,14.32
2022-10-07T23:59:15.670Z,13.57
